Time;durP1;ratioP1;P1;durP2;ratioP2;P2;SDS_P1;SDS_P2;PMS_P1;PMS_P2;Temp;Humidity;BMP_temperature;BMP_pressure;BME280_temperature;BME280_humidity;BME280_pressure;Samples;Min_cycle;Max_cycle;Signal;HPM_P1;HPM_P2
2022/11/09 00:00:05;;;;;;;1.00;0.50;;;12.80;1.00;;;;;;4957327;28;20186;-93
2022/11/09 00:02:33;;;;;;;1.50;0.40;;;12.80;1.00;;;;;;4955833;28;20311;-93
2022/11/09 00:05:05;;;;;;;3.80;0.37;;;12.70;1.00;;;;;;4955847;28;20430;-93
2022/11/09 00:07:33;;;;;;;0.60;0.20;;;12.70;1.00;;;;;;4956696;28;20412;-94
2022/11/09 00:09:59;;;;;;;2.03;0.53;;;12.80;1.00;;;;;;4959814;29;20432;-94
2022/11/09 00:12:25;;;;;;;3.60;0.93;;;12.80;1.00;;;;;;4957022;29;20468;-92
2022/11/09 00:14:55;;;;;;;2.10;1.20;;;12.90;1.00;;;;;;4959829;28;20246;-94
2022/11/09 00:17:21;;;;;;;5.60;1.50;;;12.90;1.00;;;;;;4960032;29;20231;-93
2022/11/09 00:19:46;;;;;;;2.27;0.60;;;12.90;1.00;;;;;;4960416;29;20425;-92
2022/11/09 00:22:15;;;;;;;3.90;0.70;;;13.00;1.00;;;;;;4957433;28;20449;-92
2022/11/09 00:24:41;;;;;;;2.37;0.60;;;13.00;1.00;;;;;;4959958;29;20179;-94
2022/11/09 00:27:07;;;;;;;2.90;0.60;;;13.00;1.00;;;;;;4962937;28;20465;-91
2022/11/09 00:29:34;;;;;;;4.87;0.63;;;13.00;1.00;;;;;;4961494;29;20429;-92
2022/11/09 00:31:59;;;;;;;0.97;0.40;;;13.00;1.00;;;;;;4958013;28;20590;-94
2022/11/09 00:34:25;;;;;;;1.37;0.30;;;12.90;1.00;;;;;;4959494;28;20520;-95
2022/11/09 00:36:50;;;;;;;2.70;0.47;;;12.90;1.00;;;;;;4959319;28;20177;-90
2022/11/09 00:39:16;;;;;;;1.00;0.20;;;12.90;1.00;;;;;;4961675;28;20206;-93
2022/11/09 00:41:41;;;;;;;1.63;0.30;;;12.80;1.00;;;;;;4961123;28;20206;-94
2022/11/09 00:44:07;;;;;;;0.73;0.27;;;12.90;1.00;;;;;;4955860;28;20170;-92
2022/11/09 00:46:32;;;;;;;1.77;0.60;;;12.80;1.00;;;;;;4955242;28;20192;-92
2022/11/09 00:48:58;;;;;;;1.10;0.20;;;12.70;1.00;;;;;;4954877;28;20185;-93
2022/11/09 00:51:24;;;;;;;1.27;0.20;;;12.80;1.00;;;;;;4955377;28;20178;-92
2022/11/09 00:53:53;;;;;;;1.43;0.53;;;12.80;1.00;;;;;;4954672;29;20206;-92
2022/11/09 00:56:19;;;;;;;1.80;0.20;;;12.70;10.00;;;;;;4954964;29;20578;-94
2022/11/09 00:58:44;;;;;;;1.43;0.40;;;12.70;9.10;;;;;;4954756;28;20423;-94
2022/11/09 01:01:13;;;;;;;4.00;0.20;;;12.60;36.30;;;;;;4954959;28;20420;-93
2022/11/09 01:03:39;;;;;;;1.77;0.67;;;12.60;42.00;;;;;;4954932;28;20189;-93
2022/11/09 01:06:05;;;;;;;0.70;0.30;;;12.60;53.50;;;;;;4954594;28;20430;-91
2022/11/09 01:08:32;;;;;;;1.07;0.47;;;12.60;50.40;;;;;;4954963;29;20429;-93
2022/11/09 01:11:04;;;;;;;4.37;0.60;;;12.60;51.10;;;;;;4954903;28;20427;-92
2022/11/09 01:13:30;;;;;;;1.87;0.67;;;12.70;17.20;;;;;;4955529;28;20480;-94
2022/11/09 01:15:55;;;;;;;3.57;0.60;;;12.60;26.80;;;;;;4954800;28;20421;-94
2022/11/09 01:20:48;;;;;;;1.40;0.60;;;12.60;69.50;;;;;;5010653;23;20282;-95
2022/11/09 01:23:17;;;;;;;7.37;0.40;;;12.60;39.80;;;;;;5009435;28;20279;-94
2022/11/09 01:25:43;;;;;;;2.10;0.50;;;12.70;29.60;;;;;;5004970;28;20447;-88
2022/11/09 01:28:13;;;;;;;4.37;0.40;;;12.70;8.50;;;;;;5007947;28;20831;-89
2022/11/09 01:30:41;;;;;;;2.83;0.47;;;12.80;1.00;;;;;;4995642;28;20992;-94
2022/11/09 01:33:09;;;;;;;1.80;0.57;;;12.70;17.50;;;;;;4996841;28;20506;-93
2022/11/09 01:35:39;;;;;;;1.03;0.30;;;12.70;8.20;;;;;;4996852;28;20413;-90
2022/11/09 01:38:06;;;;;;;2.73;0.80;;;12.70;49.60;;;;;;4997081;28;20450;-91
2022/11/09 01:40:33;;;;;;;1.67;0.47;;;12.60;67.00;;;;;;4996815;28;20446;-93
2022/11/09 01:43:13;;;;;;;2.17;0.50;;;12.60;60.50;;;;;;4997088;28;20469;-92
2022/11/09 01:45:38;;;;;;;2.33;0.63;;;12.70;42.70;;;;;;4996639;28;20416;-93
2022/11/09 01:48:18;;;;;;;2.30;0.83;;;12.60;48.40;;;;;;4996855;28;20958;-93
2022/11/09 01:50:54;;;;;;;1.50;0.40;;;12.50;53.60;;;;;;4996977;28;20636;-93
2022/11/09 01:53:28;;;;;;;3.00;0.47;;;12.70;26.30;;;;;;4996357;28;20465;-94
2022/11/09 01:55:58;;;;;;;1.77;0.50;;;12.60;93.90;;;;;;4997218;28;20417;-94
2022/11/09 01:58:30;;;;;;;1.40;0.40;;;12.50;96.70;;;;;;4997571;28;20419;-93
2022/11/09 02:01:34;;;;;;;1.30;0.40;;;12.60;70.30;;;;;;4998131;28;20419;-92
2022/11/09 02:04:29;;;;;;;3.53;0.30;;;12.50;94.00;;;;;;5005955;28;20517;-92
2022/11/09 02:06:59;;;;;;;4.53;0.30;;;12.60;80.10;;;;;;5002501;28;20868;-93
2022/11/09 02:09:50;;;;;;;2.50;0.33;;;12.60;96.10;;;;;;5003384;28;20452;-94
2022/11/09 02:12:17;;;;;;;1.73;0.50;;;12.50;99.90;;;;;;5004353;28;20453;-92
2022/11/09 02:14:43;;;;;;;1.03;0.40;;;12.60;76.70;;;;;;4993940;28;20436;-93
2022/11/09 02:17:10;;;;;;;3.17;0.53;;;12.60;97.90;;;;;;5004798;28;20959;-94
2022/11/09 02:19:35;;;;;;;1.77;0.30;;;12.60;99.90;;;;;;5008381;28;20475;-93
2022/11/09 02:22:05;;;;;;;1.67;0.30;;;12.70;63.60;;;;;;5008767;28;20426;-94
2022/11/09 02:24:35;;;;;;;1.83;0.20;;;12.80;40.60;;;;;;5005238;28;20176;-94
2022/11/09 02:27:06;;;;;;;1.13;0.43;;;12.80;43.10;;;;;;4997667;28;20431;-94
2022/11/09 02:29:36;;;;;;;2.10;0.40;;;12.80;46.20;;;;;;4986089;28;20516;-93
2022/11/09 02:32:05;;;;;;;2.03;0.37;;;12.80;27.40;;;;;;4999840;28;20419;-95
2022/11/09 02:34:31;;;;;;;1.93;0.43;;;12.80;56.50;;;;;;5000886;28;20428;-95
2022/11/09 02:36:58;;;;;;;2.03;0.87;;;12.90;30.00;;;;;;5002847;28;20798;-93
2022/11/09 02:39:25;;;;;;;2.23;0.40;;;12.90;21.50;;;;;;5003317;28;20275;-93
2022/11/09 02:42:00;;;;;;;1.70;0.37;;;12.90;33.20;;;;;;4996398;28;20970;-92
2022/11/09 02:44:32;;;;;;;2.73;0.87;;;12.80;43.50;;;;;;4995517;28;20427;-92
2022/11/09 02:46:58;;;;;;;2.30;0.60;;;12.90;16.50;;;;;;4995483;28;20428;-92
2022/11/09 02:49:26;;;;;;;1.80;0.30;;;12.90;31.80;;;;;;4994909;28;20500;-90
2022/11/09 02:51:51;;;;;;;1.13;0.30;;;12.90;27.20;;;;;;4995090;28;20168;-91
2022/11/09 02:54:17;;;;;;;2.13;0.50;;;12.90;21.50;;;;;;4995071;28;20789;-92
2022/11/09 02:56:43;;;;;;;3.00;0.40;;;12.90;20.10;;;;;;4994946;28;20545;-91
2022/11/09 02:59:08;;;;;;;0.63;0.20;;;12.90;28.20;;;;;;4995161;28;20185;-91
2022/11/09 03:01:34;;;;;;;4.10;0.70;;;12.90;30.70;;;;;;4995067;28;20259;-89
2022/11/09 03:03:59;;;;;;;0.63;0.27;;;12.80;40.70;;;;;;4994876;28;20172;-91
2022/11/09 03:06:33;;;;;;;1.20;0.30;;;12.80;58.80;;;;;;4994544;28;20254;-91
2022/11/09 03:09:06;;;;;;;0.90;0.30;;;12.70;92.40;;;;;;5004486;28;20179;-93
2022/11/09 03:11:32;;;;;;;3.80;0.60;;;12.70;99.90;;;;;;5012293;28;20432;-94
2022/11/09 03:13:58;;;;;;;5.27;0.53;;;12.80;99.90;;;;;;5120670;22;20575;-96
2022/11/09 03:16:23;;;;;;;1.40;0.20;;;12.80;99.90;;;;;;5011735;28;20414;-91
2022/11/09 03:18:50;;;;;;;0.93;0.30;;;12.80;99.90;;;;;;5014824;28;20221;-93
2022/11/09 03:23:49;;;;;;;1.60;0.40;;;12.70;99.90;;;;;;5020646;22;20488;-92
2022/11/09 03:26:36;;;;;;;2.00;0.40;;;12.70;99.90;;;;;;5029243;22;20224;-93
2022/11/09 03:29:05;;;;;;;1.10;0.40;;;12.70;99.90;;;;;;5008545;28;20516;-93
2022/11/09 03:31:32;;;;;;;1.93;0.77;;;12.60;99.90;;;;;;4991857;28;20459;-93
2022/11/09 03:33:58;;;;;;;2.57;0.43;;;12.50;99.90;;;;;;4995604;28;20471;-94
2022/11/09 03:36:26;;;;;;;3.80;0.47;;;12.50;99.90;;;;;;4994303;28;20475;-91
2022/11/09 03:38:52;;;;;;;1.40;0.30;;;12.50;99.90;;;;;;4993493;28;20182;-93
2022/11/09 03:41:17;;;;;;;2.00;0.60;;;12.50;99.90;;;;;;4994288;28;20433;-93
2022/11/09 03:43:43;;;;;;;2.20;0.60;;;12.50;99.90;;;;;;4994533;28;20182;-92
2022/11/09 03:46:08;;;;;;;1.70;0.40;;;12.50;99.90;;;;;;4994539;28;20180;-92
2022/11/09 03:48:34;;;;;;;3.60;0.67;;;12.50;99.90;;;;;;4994836;28;20259;-92
2022/11/09 03:50:59;;;;;;;1.40;0.40;;;12.50;99.90;;;;;;4994015;28;20195;-91
2022/11/09 03:53:25;;;;;;;1.23;0.30;;;12.60;99.90;;;;;;4994099;28;20293;-92
2022/11/09 03:55:50;;;;;;;5.60;0.20;;;12.50;99.90;;;;;;4993813;28;20654;-92
2022/11/09 03:58:16;;;;;;;1.43;0.30;;;12.60;99.90;;;;;;4994342;28;20199;-93
2022/11/09 04:00:44;;;;;;;1.93;0.20;;;12.50;99.90;;;;;;4994369;28;20269;-92
2022/11/09 04:03:10;;;;;;;2.10;0.83;;;12.40;99.90;;;;;;4994107;28;20184;-92
2022/11/09 04:05:35;;;;;;;2.10;0.60;;;12.50;99.90;;;;;;4995284;28;20429;-94
2022/11/09 04:08:01;;;;;;;1.43;0.50;;;12.40;99.90;;;;;;4994645;28;20177;-95
2022/11/09 04:10:27;;;;;;;1.17;0.20;;;12.40;99.90;;;;;;5001453;28;20173;-93
2022/11/09 04:12:53;;;;;;;2.43;0.53;;;12.50;99.90;;;;;;5004652;28;20224;-93
2022/11/09 04:15:22;;;;;;;2.40;0.40;;;12.40;99.90;;;;;;4998518;28;20796;-93
2022/11/09 04:17:58;;;;;;;0.80;0.20;;;12.40;99.90;;;;;;4997715;28;20530;-93
2022/11/09 04:20:24;;;;;;;2.30;0.30;;;12.40;99.90;;;;;;4997799;28;20180;-94
2022/11/09 04:22:55;;;;;;;1.20;0.40;;;12.50;99.90;;;;;;5004573;28;20439;-95
2022/11/09 04:25:21;;;;;;;2.00;0.20;;;12.50;99.90;;;;;;4995974;28;20666;-94
2022/11/09 04:27:46;;;;;;;1.00;0.40;;;12.60;99.90;;;;;;5000448;28;20495;-94
2022/11/09 04:30:12;;;;;;;1.50;0.20;;;12.60;99.90;;;;;;5003932;28;20426;-95
2022/11/09 04:32:37;;;;;;;1.87;0.30;;;12.50;99.90;;;;;;4998598;28;20203;-95
2022/11/09 04:35:03;;;;;;;0.83;0.30;;;12.50;99.90;;;;;;4994941;28;20185;-93
2022/11/09 04:37:29;;;;;;;1.60;0.33;;;12.50;99.90;;;;;;4994267;28;20182;-95
2022/11/09 04:39:54;;;;;;;1.40;0.40;;;12.50;99.90;;;;;;4995941;28;20176;-94
2022/11/09 04:42:20;;;;;;;1.83;0.63;;;12.50;99.90;;;;;;4995948;28;20226;-94
2022/11/09 04:44:45;;;;;;;1.20;0.30;;;12.50;99.90;;;;;;4995583;28;20227;-94
2022/11/09 04:47:11;;;;;;;1.73;0.60;;;12.50;99.90;;;;;;4994294;28;20216;-94
2022/11/09 04:49:36;;;;;;;0.77;0.37;;;12.50;99.90;;;;;;4995464;28;20180;-93
2022/11/09 04:52:02;;;;;;;1.23;0.50;;;12.50;99.90;;;;;;5017709;28;20160;-92
2022/11/09 04:54:29;;;;;;;3.90;0.30;;;12.50;99.90;;;;;;5017482;28;20185;-93
2022/11/09 04:56:55;;;;;;;2.73;0.40;;;12.50;99.90;;;;;;5016788;28;20187;-92
2022/11/09 04:59:20;;;;;;;1.90;0.50;;;12.50;99.90;;;;;;5013336;28;20442;-90
2022/11/09 05:01:46;;;;;;;1.80;0.40;;;12.50;99.90;;;;;;5004260;28;20198;-93
2022/11/09 05:04:12;;;;;;;2.83;0.50;;;12.50;99.90;;;;;;5002491;28;20202;-94
2022/11/09 05:06:37;;;;;;;3.20;0.77;;;12.60;99.90;;;;;;5006376;28;20191;-93
2022/11/09 05:09:07;;;;;;;4.00;0.47;;;12.60;99.90;;;;;;4998334;28;20173;-93
2022/11/09 05:11:34;;;;;;;2.30;0.80;;;12.70;99.90;;;;;;4999552;28;20168;-93
2022/11/09 05:14:00;;;;;;;0.77;0.20;;;12.60;99.90;;;;;;4999168;28;20545;-93
2022/11/09 05:16:27;;;;;;;1.00;0.30;;;12.70;99.90;;;;;;4998799;28;20421;-93
2022/11/09 05:18:53;;;;;;;2.50;0.63;;;12.80;99.90;;;;;;4997250;28;20424;-94
2022/11/09 05:21:19;;;;;;;2.43;0.40;;;12.90;99.90;;;;;;4998118;28;20810;-92
2022/11/09 05:24:01;;;;;;;1.97;0.27;;;12.90;99.90;;;;;;4997862;28;20184;-93
2022/11/09 05:26:32;;;;;;;2.93;0.20;;;12.90;99.90;;;;;;5000956;28;20216;-94
2022/11/09 05:29:03;;;;;;;1.80;0.70;;;13.00;99.90;;;;;;5007316;28;20484;-92
2022/11/09 05:31:31;;;;;;;2.43;0.30;;;12.90;99.90;;;;;;5010787;28;20419;-93
2022/11/09 05:33:58;;;;;;;0.50;0.20;;;13.00;99.90;;;;;;5008969;28;20481;-93
2022/11/09 05:36:25;;;;;;;2.03;0.63;;;13.00;99.90;;;;;;5011651;28;20425;-92
2022/11/09 05:38:50;;;;;;;2.30;0.30;;;13.00;99.90;;;;;;5009107;28;20420;-94
2022/11/09 05:41:17;;;;;;;0.90;0.20;;;12.90;99.90;;;;;;5010558;28;20493;-93
2022/11/09 05:43:44;;;;;;;0.80;0.20;;;12.90;99.90;;;;;;4997288;28;20188;-91
2022/11/09 05:46:10;;;;;;;5.80;0.50;;;12.80;99.90;;;;;;5000322;28;20446;-94
2022/11/09 05:48:35;;;;;;;1.33;0.40;;;12.80;99.90;;;;;;5000429;28;20431;-93
2022/11/09 05:51:05;;;;;;;2.23;0.70;;;12.80;99.90;;;;;;4997981;28;20418;-94
2022/11/09 05:53:31;;;;;;;3.27;1.03;;;12.60;99.90;;;;;;4998680;28;20790;-91
2022/11/09 05:56:06;;;;;;;2.57;0.30;;;12.70;99.90;;;;;;5004273;28;20405;-94
2022/11/09 05:58:35;;;;;;;2.03;0.50;;;12.70;99.90;;;;;;4999700;28;20427;-90
2022/11/09 06:01:13;;;;;;;0.87;0.40;;;12.70;99.90;;;;;;5007116;28;20412;-95
2022/11/09 06:03:41;;;;;;;2.63;0.30;;;12.70;99.90;;;;;;5006113;28;20911;-92
2022/11/09 06:06:07;;;;;;;0.93;0.50;;;12.60;99.90;;;;;;5004842;28;20431;-90
2022/11/09 06:08:33;;;;;;;1.70;0.30;;;12.60;99.90;;;;;;5005714;28;20757;-90
2022/11/09 06:11:07;;;;;;;2.40;0.40;;;12.60;99.90;;;;;;5007236;28;20583;-94
2022/11/09 06:13:33;;;;;;;1.20;0.40;;;12.60;99.90;;;;;;5002600;28;20217;-92
2022/11/09 06:16:01;;;;;;;2.10;0.40;;;12.60;99.90;;;;;;5005419;28;20427;-90
2022/11/09 06:18:33;;;;;;;1.03;0.23;;;12.60;99.90;;;;;;4969210;28;20642;-91
2022/11/09 06:21:01;;;;;;;1.03;0.30;;;12.50;99.90;;;;;;5006474;28;20400;-92
2022/11/09 06:23:29;;;;;;;0.60;0.30;;;12.60;99.90;;;;;;5000309;28;20915;-93
2022/11/09 06:25:59;;;;;;;2.43;0.30;;;12.60;99.90;;;;;;4996327;28;20430;-92
2022/11/09 06:28:25;;;;;;;1.27;0.27;;;12.60;99.90;;;;;;4995935;28;20478;-92
2022/11/09 06:30:51;;;;;;;1.73;0.40;;;12.60;99.90;;;;;;4996466;28;20411;-91
2022/11/09 06:33:17;;;;;;;1.70;0.20;;;12.70;99.90;;;;;;4996070;28;20310;-91
2022/11/09 06:35:42;;;;;;;1.30;0.40;;;12.60;99.90;;;;;;4995754;28;20555;-91
2022/11/09 06:38:15;;;;;;;1.40;0.30;;;12.70;99.90;;;;;;4997206;28;20637;-93
2022/11/09 06:40:40;;;;;;;1.53;0.33;;;12.70;99.90;;;;;;4996948;28;20175;-93
2022/11/09 06:43:06;;;;;;;2.67;0.37;;;12.60;99.90;;;;;;4996782;28;20443;-93
2022/11/09 06:45:32;;;;;;;1.37;0.30;;;12.60;99.90;;;;;;4996298;28;20183;-92
2022/11/09 06:47:59;;;;;;;1.23;0.40;;;12.60;99.90;;;;;;4997020;28;20224;-91
2022/11/09 06:50:27;;;;;;;0.70;0.20;;;12.60;99.90;;;;;;4997379;28;20503;-93
2022/11/09 06:53:00;;;;;;;1.40;0.40;;;12.60;99.90;;;;;;5000854;28;20465;-95
2022/11/09 06:55:27;;;;;;;2.37;0.23;;;12.50;99.90;;;;;;5000553;28;20422;-94
2022/11/09 06:57:52;;;;;;;2.53;0.30;;;12.60;99.90;;;;;;4998113;28;20502;-92
2022/11/09 07:00:19;;;;;;;1.77;0.30;;;12.60;99.90;;;;;;4998320;28;20461;-93
2022/11/09 07:02:45;;;;;;;2.90;0.20;;;12.70;99.90;;;;;;4998522;28;20203;-92
2022/11/09 07:05:11;;;;;;;2.57;0.47;;;12.70;99.90;;;;;;4996249;28;20413;-92
2022/11/09 07:07:36;;;;;;;1.03;0.40;;;12.70;99.90;;;;;;5000261;28;20424;-94
2022/11/09 07:10:03;;;;;;;0.97;0.20;;;12.70;99.90;;;;;;4996528;28;20781;-93
2022/11/09 07:12:28;;;;;;;1.13;0.47;;;12.80;99.90;;;;;;4997195;28;20254;-92
2022/11/09 07:14:54;;;;;;;1.03;0.33;;;12.90;99.90;;;;;;4998137;28;20448;-93
2022/11/09 07:17:20;;;;;;;0.80;0.20;;;12.80;99.90;;;;;;4996145;28;20243;-94
2022/11/09 07:19:46;;;;;;;3.37;0.30;;;12.80;99.90;;;;;;4995653;28;20174;-94
2022/11/09 07:22:12;;;;;;;1.60;0.30;;;12.80;99.90;;;;;;4994997;28;20168;-93
2022/11/09 07:24:40;;;;;;;2.47;0.30;;;12.70;99.90;;;;;;4995218;28;20477;-92
2022/11/09 07:27:05;;;;;;;3.43;0.60;;;12.70;99.90;;;;;;4995004;28;20318;-92
2022/11/09 07:29:31;;;;;;;0.93;0.30;;;12.70;99.90;;;;;;4994686;28;20514;-93
2022/11/09 07:31:56;;;;;;;0.97;0.30;;;12.80;99.90;;;;;;4995247;28;20659;-93
2022/11/09 07:34:22;;;;;;;1.60;0.40;;;12.70;99.90;;;;;;4995094;28;20243;-93
2022/11/09 07:36:47;;;;;;;1.87;0.40;;;12.70;99.90;;;;;;4995109;28;20184;-92
2022/11/09 07:39:13;;;;;;;1.13;0.30;;;12.70;99.90;;;;;;4994936;28;20185;-92
2022/11/09 07:41:38;;;;;;;2.47;0.60;;;12.80;99.90;;;;;;4995942;28;20173;-93
2022/11/09 07:44:04;;;;;;;2.20;0.30;;;12.90;99.90;;;;;;4996141;28;20185;-92
2022/11/09 07:46:30;;;;;;;1.60;0.30;;;13.00;99.90;;;;;;4995754;28;20193;-93
2022/11/09 07:48:55;;;;;;;1.30;0.47;;;12.90;99.90;;;;;;4995687;28;20493;-92
2022/11/09 07:51:21;;;;;;;1.80;0.30;;;13.00;99.90;;;;;;4995296;28;20177;-92
2022/11/09 07:53:46;;;;;;;3.43;0.30;;;13.00;99.90;;;;;;4996296;28;20225;-94
2022/11/09 07:56:22;;;;;;;1.27;0.50;;;13.00;99.90;;;;;;4995763;28;20232;-93
2022/11/09 07:58:51;;;;;;;1.47;0.30;;;13.10;99.90;;;;;;4997147;28;20177;-94
2022/11/09 08:01:17;;;;;;;0.90;0.30;;;13.10;99.90;;;;;;5002513;28;20424;-93
2022/11/09 08:03:42;;;;;;;2.20;0.53;;;13.20;99.90;;;;;;5000643;28;20566;-94
2022/11/09 08:06:08;;;;;;;1.07;0.23;;;13.20;99.90;;;;;;4998684;28;20179;-94
2022/11/09 08:08:33;;;;;;;4.10;0.20;;;13.30;99.90;;;;;;4999599;28;20180;-94
2022/11/09 08:11:01;;;;;;;1.50;0.30;;;13.40;99.90;;;;;;4996775;28;20195;-93
2022/11/09 08:13:26;;;;;;;2.53;0.30;;;13.40;99.90;;;;;;4994524;28;20231;-92
2022/11/09 08:15:52;;;;;;;3.50;0.40;;;13.40;99.90;;;;;;4997077;28;20458;-95
2022/11/09 08:18:19;;;;;;;0.60;0.30;;;13.30;99.90;;;;;;4994550;28;20662;-91
2022/11/09 08:20:45;;;;;;;2.20;0.30;;;13.30;99.90;;;;;;4998756;28;20628;-93
2022/11/09 08:23:12;;;;;;;2.57;0.50;;;13.20;99.90;;;;;;4999778;28;20436;-95
2022/11/09 08:25:39;;;;;;;1.80;0.20;;;13.30;99.90;;;;;;4999492;28;20424;-92
2022/11/09 08:28:04;;;;;;;1.93;0.20;;;13.30;99.90;;;;;;4995904;28;21000;-87
2022/11/09 08:30:31;;;;;;;3.20;0.67;;;13.30;99.90;;;;;;4993074;28;20413;-86
2022/11/09 08:32:58;;;;;;;1.40;0.20;;;13.30;99.90;;;;;;4992674;28;20615;-87
2022/11/09 08:35:24;;;;;;;0.60;0.20;;;13.20;99.90;;;;;;4992204;28;20491;-86
2022/11/09 08:37:51;;;;;;;0.70;0.20;;;13.40;99.90;;;;;;4994053;28;20886;-86
2022/11/09 08:40:19;;;;;;;2.20;0.43;;;13.40;99.90;;;;;;4994361;28;20434;-87
2022/11/09 08:42:45;;;;;;;2.43;0.57;;;13.40;99.90;;;;;;4997485;28;20480;-87
2022/11/09 08:45:11;;;;;;;1.90;0.30;;;13.50;99.90;;;;;;4997605;28;20419;-87
2022/11/09 08:47:37;;;;;;;2.30;0.40;;;13.60;99.90;;;;;;4997828;28;20205;-87
2022/11/09 08:50:04;;;;;;;1.90;0.60;;;13.60;99.90;;;;;;4997215;28;20253;-86
2022/11/09 08:52:30;;;;;;;2.23;0.50;;;13.60;99.90;;;;;;4997464;28;20461;-87
2022/11/09 08:54:56;;;;;;;0.50;0.20;;;13.70;99.90;;;;;;4997985;28;20874;-86
2022/11/09 08:57:24;;;;;;;1.70;0.20;;;13.80;93.90;;;;;;4983572;28;20423;-84
2022/11/09 08:59:50;;;;;;;3.87;0.87;;;14.00;86.80;;;;;;4978175;28;20584;-85
2022/11/09 09:02:16;;;;;;;1.60;0.50;;;15.50;99.90;;;;;;4976393;28;20435;-83
2022/11/09 09:04:42;;;;;;;0.97;0.20;;;15.10;99.90;;;;;;4977017;28;20250;-90
2022/11/09 09:07:09;;;;;;;1.53;0.30;;;14.60;1.00;;;;;;4977428;28;20266;-85
2022/11/09 09:09:38;;;;;;;4.83;0.40;;;14.60;1.00;;;;;;4992657;28;20416;-85
2022/11/09 09:12:05;;;;;;;2.13;0.20;;;14.30;1.00;;;;;;4997473;28;20481;-91
2022/11/09 09:14:31;;;;;;;1.37;0.27;;;14.30;1.00;;;;;;4997245;28;20422;-87
2022/11/09 09:16:57;;;;;;;3.43;0.63;;;14.20;1.00;;;;;;4996926;28;20431;-86
2022/11/09 09:19:22;;;;;;;8.20;0.30;;;14.70;1.00;;;;;;4994972;28;20188;-92
2022/11/09 09:21:48;;;;;;;2.17;0.30;;;15.60;1.00;;;;;;4996699;28;20632;-92
2022/11/09 09:24:13;;;;;;;1.07;0.27;;;16.10;1.00;;;;;;4995670;28;20658;-92
2022/11/09 09:26:39;;;;;;;4.37;0.77;;;15.80;1.00;;;;;;4996581;28;20219;-92
2022/11/09 09:29:04;;;;;;;1.90;0.30;;;15.70;1.00;;;;;;4995639;28;20172;-87
2022/11/09 09:31:30;;;;;;;1.70;0.33;;;15.90;1.00;;;;;;4997430;28;20171;-84
2022/11/09 09:33:57;;;;;;;1.70;0.30;;;15.60;99.90;;;;;;4996830;28;20217;-90
2022/11/09 09:36:23;;;;;;;0.70;0.20;;;17.30;99.90;;;;;;4997326;28;20651;-94
2022/11/09 09:38:50;;;;;;;1.40;0.23;;;19.10;99.90;;;;;;4997873;28;20919;-87
2022/11/09 09:41:34;;;;;;;2.97;0.30;;;19.30;99.90;;;;;;4996693;28;20411;-93
2022/11/09 09:44:32;;;;;;;1.47;0.20;;;18.30;99.90;;;;;;4994930;28;20432;-88
2022/11/09 09:47:29;;;;;;;0.73;0.20;;;19.00;99.90;;;;;;4996389;28;20433;-88
2022/11/09 09:50:00;;;;;;;2.10;0.57;;;18.90;99.90;;;;;;4994745;28;20430;-87
2022/11/09 09:52:56;;;;;;;3.07;0.30;;;18.40;99.90;;;;;;4994897;28;20507;-92
2022/11/09 09:55:37;;;;;;;1.83;0.20;;;18.40;99.90;;;;;;4996193;28;20517;-94
2022/11/09 09:58:12;;;;;;;1.60;0.30;;;17.40;99.90;;;;;;4996515;28;20497;-87
2022/11/09 10:00:38;;;;;;;1.23;0.50;;;17.40;1.00;;;;;;4996444;28;20507;-89
2022/11/09 10:03:05;;;;;;;1.63;0.20;;;17.30;1.00;;;;;;4995934;28;20462;-90
2022/11/09 10:05:52;;;;;;;1.87;0.20;;;17.30;1.00;;;;;;4995332;28;20423;-90
2022/11/09 10:08:43;;;;;;;2.80;0.20;;;17.30;1.00;;;;;;4994629;28;20509;-94
2022/11/09 10:11:41;;;;;;;6.13;0.80;;;17.50;1.00;;;;;;4996298;28;20917;-89
2022/11/09 10:14:18;;;;;;;6.23;0.73;;;17.80;99.90;;;;;;4994764;28;20541;-88
2022/11/09 10:17:00;;;;;;;1.27;0.20;;;17.70;1.00;;;;;;4996158;28;20418;-92
2022/11/09 10:19:46;;;;;;;2.20;0.40;;;18.10;1.00;;;;;;4999219;28;20430;-88
2022/11/09 10:22:24;;;;;;;6.03;0.60;;;18.50;99.90;;;;;;5016761;28;20422;-91
2022/11/09 10:25:13;;;;;;;1.47;0.33;;;18.70;99.90;;;;;;5017816;28;20384;-88
2022/11/09 10:27:47;;;;;;;4.10;0.30;;;18.40;99.90;;;;;;5019425;28;20593;-91
2022/11/09 10:30:18;;;;;;;2.97;0.40;;;19.20;99.90;;;;;;5013037;28;20439;-89
2022/11/09 10:32:48;;;;;;;4.33;0.93;;;18.40;99.90;;;;;;4999649;28;20464;-89
2022/11/09 10:35:52;;;;;;;1.93;0.77;;;18.40;99.90;;;;;;4995620;28;20456;-92
2022/11/09 10:38:30;;;;;;;2.97;0.63;;;17.40;99.90;;;;;;4996116;28;20413;-94
2022/11/09 10:41:03;;;;;;;8.67;0.53;;;17.30;1.00;;;;;;4998958;28;20981;-89
2022/11/09 10:43:28;;;;;;;1.70;0.77;;;17.50;1.00;;;;;;4996470;28;20991;-90
2022/11/09 10:45:59;;;;;;;3.47;0.83;;;17.80;99.90;;;;;;4998390;28;20414;-91
2022/11/09 10:48:57;;;;;;;3.37;0.33;;;18.30;99.90;;;;;;4995615;28;20178;-89
2022/11/09 10:51:41;;;;;;;2.57;0.30;;;18.80;99.90;;;;;;4998083;28;20846;-92
2022/11/09 10:54:17;;;;;;;6.43;0.40;;;19.00;99.90;;;;;;4995233;28;20551;-87
2022/11/09 10:56:45;;;;;;;2.63;0.50;;;18.60;99.90;;;;;;4995683;28;20409;-91
2022/11/09 10:59:36;;;;;;;4.07;0.50;;;18.20;99.90;;;;;;4997566;28;20917;-94
2022/11/09 11:02:25;;;;;;;3.60;0.40;;;18.30;99.90;;;;;;4995319;28;20469;-92
2022/11/09 11:05:05;;;;;;;3.50;0.50;;;18.00;99.90;;;;;;4994279;28;20765;-93
2022/11/09 11:07:33;;;;;;;1.47;0.40;;;17.60;99.90;;;;;;4974607;28;20478;-91
2022/11/09 11:10:14;;;;;;;3.23;0.30;;;17.60;99.90;;;;;;4980115;28;20416;-84
2022/11/09 11:12:50;;;;;;;1.77;0.60;;;17.70;99.90;;;;;;4975422;28;20465;-88
2022/11/09 11:15:24;;;;;;;5.03;0.60;;;19.10;99.90;;;;;;4975366;28;20441;-88
2022/11/09 11:17:58;;;;;;;1.70;0.40;;;18.70;99.90;;;;;;4973661;28;20428;-88
2022/11/09 11:20:39;;;;;;;1.17;0.37;;;18.30;99.90;;;;;;4975549;28;20433;-88
2022/11/09 11:23:24;;;;;;;4.40;0.30;;;17.90;99.90;;;;;;4975380;28;20444;-87
2022/11/09 11:25:53;;;;;;;2.77;0.60;;;17.60;99.90;;;;;;4975387;28;20471;-88
2022/11/09 11:28:48;;;;;;;1.77;0.60;;;17.30;99.90;;;;;;4975219;28;20467;-89
2022/11/09 11:31:19;;;;;;;3.73;0.40;;;17.20;99.90;;;;;;4975782;28;20411;-85
2022/11/09 11:33:45;;;;;;;3.17;0.60;;;17.20;99.90;;;;;;4974687;28;20467;-90
2022/11/09 11:36:39;;;;;;;2.37;0.30;;;16.90;99.90;;;;;;4975370;28;20753;-91
2022/11/09 11:39:49;;;;;;;1.43;0.50;;;16.80;99.90;;;;;;4976436;28;20477;-91
2022/11/09 11:42:41;;;;;;;3.50;0.40;;;16.30;99.90;;;;;;4955735;28;20429;-90
2022/11/09 11:45:20;;;;;;;3.10;2.10;;;16.00;1.00;;;;;;4956270;28;20430;-92
2022/11/09 11:48:13;;;;;;;4.63;0.40;;;16.30;1.00;;;;;;4966197;28;20416;-93
2022/11/09 11:50:47;;;;;;;5.60;0.67;;;16.30;1.00;;;;;;4980692;28;20450;-93
2022/11/09 11:53:40;;;;;;;1.07;0.40;;;16.20;1.00;;;;;;4993188;28;20988;-92
2022/11/09 11:56:34;;;;;;;2.77;0.30;;;16.30;1.00;;;;;;4984702;28;20445;-88
2022/11/09 11:59:16;;;;;;;1.70;0.33;;;16.20;1.00;;;;;;4974616;28;20418;-93
2022/11/09 12:02:00;;;;;;;1.63;0.20;;;16.20;1.00;;;;;;4974463;28;20521;-89
2022/11/09 12:05:03;;;;;;;1.90;0.20;;;16.40;1.00;;;;;;4973534;28;20433;-83
2022/11/09 12:07:45;;;;;;;1.57;0.40;;;16.40;1.00;;;;;;4975120;28;20419;-84
2022/11/09 12:10:31;;;;;;;3.73;0.33;;;16.20;1.00;;;;;;4974615;28;20457;-85
2022/11/09 12:13:27;;;;;;;3.30;0.93;;;16.10;1.00;;;;;;4974742;28;20553;-89
2022/11/09 12:16:03;;;;;;;4.60;0.63;;;16.10;1.00;;;;;;4974179;28;20752;-84
2022/11/09 12:18:38;;;;;;;1.00;0.40;;;16.10;1.00;;;;;;4974273;28;20434;-85
2022/11/09 12:21:26;;;;;;;2.50;0.27;;;16.00;1.00;;;;;;4974777;28;20414;-88
2022/11/09 12:24:14;;;;;;;2.33;0.33;;;15.90;1.00;;;;;;4974676;28;20415;-88
2022/11/09 12:26:58;;;;;;;3.40;0.40;;;15.80;1.00;;;;;;4975020;28;20808;-91
2022/11/09 12:29:35;;;;;;;3.83;1.10;;;15.80;1.00;;;;;;4975733;28;20427;-90
2022/11/09 12:32:27;;;;;;;2.20;0.57;;;15.80;1.00;;;;;;4977597;28;20448;-88
2022/11/09 12:34:56;;;;;;;2.13;0.50;;;15.80;1.00;;;;;;4974042;28;20418;-87
2022/11/09 12:37:54;;;;;;;2.00;0.40;;;15.90;1.00;;;;;;4974174;28;20564;-85
2022/11/09 12:40:31;;;;;;;2.40;0.50;;;16.10;1.00;;;;;;4979682;28;20901;-85
2022/11/09 12:43:04;;;;;;;3.80;1.00;;;16.10;1.00;;;;;;4972862;28;20422;-84
2022/11/09 12:45:40;;;;;;;5.53;0.90;;;16.00;1.00;;;;;;4974072;28;20417;-84
2022/11/09 12:48:20;;;;;;;2.87;0.43;;;16.10;1.00;;;;;;4973662;28;20448;-84
2022/11/09 12:50:46;;;;;;;2.57;0.50;;;16.20;99.90;;;;;;4973965;28;20423;-82
2022/11/09 12:53:12;;;;;;;2.93;0.60;;;16.30;1.00;;;;;;4973984;28;20482;-85
2022/11/09 12:55:54;;;;;;;2.27;0.97;;;16.30;1.00;;;;;;4974002;28;20408;-85
2022/11/09 12:58:22;;;;;;;7.70;0.60;;;16.30;1.00;;;;;;4974088;28;20417;-84
2022/11/09 13:00:50;;;;;;;2.00;0.30;;;16.20;1.00;;;;;;4973990;28;20926;-82
2022/11/09 13:03:25;;;;;;;2.40;0.20;;;16.40;1.00;;;;;;4973639;28;20422;-82
2022/11/09 13:06:10;;;;;;;2.57;0.30;;;16.50;1.00;;;;;;4974017;28;20417;-82
2022/11/09 13:08:36;;;;;;;2.00;0.30;;;16.30;99.90;;;;;;4973897;28;20431;-82
2022/11/09 13:11:16;;;;;;;1.33;0.20;;;16.20;1.00;;;;;;4973867;28;20402;-83
2022/11/09 13:13:41;;;;;;;2.40;0.33;;;16.20;1.00;;;;;;4973782;28;20949;-83